Billings, MT (59101)

6:59 AM MDT on October 24, 2014 (GMT -0600)
Downtown Billings | Change Station
CLOSE
Current Station
Personal Weather Station
Location: Billings, MT
Elevation: 3127 ft
Nearby Weather Stations

Elev 3127 ft 45.78 °N, 108.50 °W | Updated 55 minutes ago

Mostly Cloudy
Mostly Cloudy
48.6 °F
Feels Like 49 °F
N
0.7
Wind Variable Wind from ENE
Gusts 2.2 mph

Today
High -- | Low -- °F
--% Chance of Precip.
Yesterday
High -- | Low -- °F
Precip. -- in
7:42 AM 6:12 PM
New Moon, 0% visible
Pressure 29.95 in
Visibility 10.0 miles
Clouds Mostly Cloudy 18000 ft
Windchill 49 °F
Dew Point 34 °F
Humidity 56%
Rainfall -999.00 in
Snow Depth Not available.
UV 0 out of 12
Pollen 1.70 out of 12
Air Quality Not available.
Flu Activity No Activity
METAR KBIL 241253Z 00000KT 10SM BKN180 11/02 A2999 RMK AO2 SLP141 T01060022

More Conditions Fewer Conditions

Pressure 29.95 in
Visibility 10.0 miles
Clouds Mostly Cloudy 18000 ft
Windchill 49 °F
Dew Point 34 °F
Humidity 56%
Rainfall -999.00 in
Snow Depth Not available.
UV 0 out of 12
Pollen 1.70 out of 12
Air Quality Not available.
Flu Activity No Activity
METAR KBIL 241253Z 00000KT 10SM BKN180 11/02 A2999 RMK AO2 SLP141 T01060022

More Conditions Fewer Conditions

10-Day Weather Forecast

Almanac

Astronomy

Oct. 24, 2014 Rise Set
Actual Time 7:42 AM MDT 6:12 PM MDT
Civil Twilight 7:12 AM MDT 6:43 PM MDT
Nautical Twilight 6:37 AM MDT 7:17 PM MDT
Astronomical Twilight 6:03 AM MDT 7:52 PM MDT
Moon 8:26 AM MDT 6:52 PM MDT
Length of Visible Light 11h 30m
Length of Day
10h 29m
Tomorrow will be 3m 0s shorter.
New Moon, 0% of the Moon is Illuminated
Today
New Moon
Oct 30
First Quarter
Nov 6
Full
Nov 14
Last Quarter
Nov 22
New

Today's Extremes

State Highs State Lows

Community

WunderPhotos

Upload Photos

1,764,544 photos uploaded!

Nearby

Snow Depth

Station Depth Elevation
Burnt Mountain 0 in 5880 ft
Placer Basin 0 in 8830 ft
Crystal Lake 1 in 6050 ft
White Mill 0 in 8700 ft
Fisher Creek 1 in 9100 ft

Earthquake Activity

City Distance Mag. Time & Date
No recent earthquake activity has been reported nearby.
Minimum magnitude displayed is 2.5.

Coastal Water Temperatures

Place Temperature
No Stations Reporting

Nearby Weather Stations